createdAt,value
2023-02-24T00:00:38.703Z,7.50
2023-02-24T00:05:44.748Z,7.87
2023-02-24T00:10:48.224Z,8.07
2023-02-24T00:16:02.628Z,8.40
2023-02-24T00:21:14.900Z,7.63
2023-02-24T00:26:18.786Z,7.57
2023-02-24T00:31:24.781Z,7.53
2023-02-24T00:36:33.870Z,7.83
2023-02-24T00:41:38.978Z,7.73
2023-02-24T00:46:44.791Z,8.00
2023-02-24T00:51:54.375Z,7.97
2023-02-24T00:56:58.117Z,7.70
2023-02-24T01:02:03.243Z,8.27
2023-02-24T01:07:11.257Z,7.13
2023-02-24T01:12:32.168Z,7.13
2023-02-24T01:17:38.160Z,7.50
2023-02-24T01:22:42.869Z,8.27
2023-02-24T01:27:46.347Z,7.23
2023-02-24T01:32:49.829Z,7.57
2023-02-24T01:37:54.683Z,7.57
2023-02-24T01:42:57.969Z,7.63
2023-02-24T01:48:05.443Z,7.63
2023-02-24T01:53:10.504Z,7.57
2023-02-24T01:58:20.493Z,7.63
2023-02-24T02:03:31.281Z,8.07
2023-02-24T02:08:38.303Z,7.67
2023-02-24T02:13:44.583Z,7.13
2023-02-24T02:18:56.366Z,7.83
2023-02-24T02:24:20.276Z,7.60
2023-02-24T02:30:06.439Z,7.50
2023-02-24T02:35:14.699Z,7.67
2023-02-24T02:40:25.403Z,7.60
2023-02-24T02:45:35.686Z,7.80
2023-02-24T02:50:46.112Z,7.53
2023-02-24T02:55:53.582Z,6.90
2023-02-24T03:01:02.786Z,7.33
2023-02-24T03:06:12.048Z,7.17
2023-02-24T03:11:18.152Z,7.97
2023-02-24T03:16:24.390Z,7.07
2023-02-24T03:21:34.629Z,6.17
2023-02-24T03:26:43.825Z,7.17
2023-02-24T03:31:51.926Z,7.20
2023-02-24T03:36:57.393Z,7.63
2023-02-24T03:42:05.460Z,7.30
2023-02-24T03:47:10.244Z,6.87
2023-02-24T03:52:29.270Z,7.27
2023-02-24T03:57:55.036Z,6.83
2023-02-24T04:03:05.432Z,7.63
2023-02-24T04:08:11.095Z,7.07
2023-02-24T04:13:21.476Z,7.47
2023-02-24T04:18:28.623Z,7.27
2023-02-24T04:23:34.570Z,7.47
2023-02-24T04:28:38.002Z,7.37
2023-02-24T04:33:42.046Z,7.23
2023-02-24T04:38:47.314Z,7.40
2023-02-24T04:43:51.093Z,7.73
2023-02-24T04:48:54.377Z,7.43
2023-02-24T04:53:59.080Z,7.53
2023-02-24T04:59:02.780Z,7.00
2023-02-24T05:04:06.381Z,6.77
2023-02-24T05:09:14.360Z,7.33
2023-02-24T05:14:21.042Z,7.33
2023-02-24T05:19:49.677Z,6.90
2023-02-24T05:24:57.258Z,6.83
2023-02-24T05:30:00.497Z,7.57
2023-02-24T05:35:04.016Z,6.60
2023-02-24T05:40:13.308Z,7.00
2023-02-24T05:45:16.851Z,6.60
2023-02-24T05:50:26.426Z,7.20
2023-02-24T05:55:32.008Z,7.60
2023-02-24T06:00:39.194Z,7.60
2023-02-24T06:05:42.762Z,8.20
2023-02-24T06:10:47.856Z,7.50
2023-02-24T06:15:57.372Z,8.40
2023-02-24T06:21:03.260Z,10.87
2023-02-24T06:26:13.242Z,8.23
2023-02-24T06:31:17.007Z,9.50
2023-02-24T06:36:20.629Z,8.90
2023-02-24T06:41:29.547Z,7.67
2023-02-24T06:46:33.424Z,8.00
2023-02-24T06:51:37.038Z,8.17
2023-02-24T06:56:41.951Z,9.10
2023-02-24T07:01:47.230Z,7.33
2023-02-24T07:06:52.595Z,7.80
2023-02-24T07:11:57.692Z,7.33
2023-02-24T07:17:01.866Z,8.53
2023-02-24T07:22:05.490Z,8.93
2023-02-24T07:27:22.676Z,7.73
2023-02-24T07:32:26.549Z,7.80
2023-02-24T07:37:31.875Z,8.23
2023-02-24T07:42:36.620Z,8.10
2023-02-24T07:47:41.214Z,8.73
2023-02-24T07:52:44.527Z,9.10
2023-02-24T07:57:51.809Z,7.90
2023-02-24T08:02:58.054Z,9.00
2023-02-24T08:08:03.302Z,12.17
2023-02-24T08:13:07.991Z,9.30
2023-02-24T08:18:12.603Z,9.03
2023-02-24T08:23:15.878Z,9.67
2023-02-24T08:28:20.522Z,9.70
2023-02-24T08:33:24.334Z,9.03
2023-02-24T08:38:39.882Z,8.17
2023-02-24T08:43:46.587Z,8.37
2023-02-24T08:48:55.696Z,8.70
2023-02-24T08:54:00.775Z,8.60
2023-02-24T08:59:07.182Z,8.80
2023-02-24T09:04:12.658Z,8.17
2023-02-24T09:09:19.409Z,8.30
2023-02-24T09:14:28.548Z,8.10
2023-02-24T09:20:02.374Z,9.07
2023-02-24T09:25:21.644Z,7.60
2023-02-24T09:30:38.580Z,8.33
2023-02-24T09:35:43.343Z,8.53
2023-02-24T09:40:50.890Z,9.40
2023-02-24T09:46:01.990Z,8.20
2023-02-24T09:51:06.163Z,8.63
2023-02-24T09:56:22.241Z,7.80
2023-02-24T10:01:42.969Z,8.57
2023-02-24T10:06:49.527Z,8.03
2023-02-24T10:11:55.384Z,6.97
2023-02-24T10:17:13.878Z,7.50
2023-02-24T10:22:28.609Z,8.13
2023-02-24T10:27:36.499Z,7.80
2023-02-24T10:32:48.199Z,9.20
2023-02-24T10:37:51.508Z,8.97
2023-02-24T10:43:10.685Z,8.57
2023-02-24T10:48:42.075Z,9.20
2023-02-24T10:53:54.302Z,9.13
2023-02-24T10:59:23.435Z,9.93
2023-02-24T11:04:54.112Z,9.93
2023-02-24T11:10:11.511Z,9.57
2023-02-24T11:15:38.953Z,10.50
2023-02-24T11:20:49.795Z,8.50
2023-02-24T11:26:01.248Z,9.10
2023-02-24T11:31:21.985Z,10.60
2023-02-24T11:36:37.316Z,8.97
2023-02-24T11:41:46.238Z,10.30
2023-02-24T11:46:57.903Z,9.67
2023-02-24T11:52:05.162Z,11.23
2023-02-24T11:57:15.486Z,9.93
2023-02-24T12:02:24.020Z,10.27
2023-02-24T12:07:34.723Z,11.00
2023-02-24T12:12:45.544Z,16.10
2023-02-24T12:17:58.222Z,11.00
2023-02-24T12:23:15.908Z,9.83
2023-02-24T12:28:30.593Z,10.23
2023-02-24T12:33:49.435Z,9.53
2023-02-24T12:39:07.091Z,10.03
2023-02-24T12:44:23.495Z,9.73
2023-02-24T12:50:00.468Z,9.73
2023-02-24T12:55:13.149Z,10.40
2023-02-24T13:00:23.222Z,9.83
2023-02-24T13:05:33.438Z,9.00
2023-02-24T13:10:45.211Z,9.30
2023-02-24T13:15:53.711Z,8.87
2023-02-24T13:21:07.088Z,7.90
2023-02-24T13:26:11.771Z,7.07
2023-02-24T13:31:15.543Z,6.83
2023-02-24T13:36:22.025Z,6.63
2023-02-24T13:41:42.418Z,6.63
2023-02-24T13:46:58.569Z,6.57
2023-02-24T13:52:05.180Z,6.83
2023-02-24T13:57:45.745Z,6.73
2023-02-24T14:02:53.109Z,6.60
2023-02-24T14:07:57.516Z,6.80
2023-02-24T14:13:07.181Z,6.70
2023-02-24T14:18:20.605Z,5.30
2023-02-24T14:23:26.168Z,7.40
2023-02-24T14:28:32.990Z,6.90
2023-02-24T14:33:38.704Z,6.10
2023-02-24T14:38:44.473Z,6.20
2023-02-24T14:43:49.328Z,6.37
2023-02-24T14:49:01.546Z,6.40
2023-02-24T14:54:08.622Z,6.07
2023-02-24T14:59:20.493Z,6.50
2023-02-24T15:04:34.261Z,5.90
2023-02-24T15:09:43.413Z,10.47
2023-02-24T15:14:53.194Z,11.67
2023-02-24T15:19:56.911Z,11.30
2023-02-24T15:25:19.182Z,11.87
2023-02-24T15:30:36.492Z,11.20
2023-02-24T15:35:48.089Z,10.33
2023-02-24T15:40:54.648Z,10.43
2023-02-24T15:45:59.794Z,10.03
2023-02-24T15:51:08.012Z,8.87
2023-02-24T15:56:12.627Z,8.50
2023-02-24T16:01:22.844Z,7.30
2023-02-24T16:06:28.571Z,7.50
2023-02-24T16:11:39.991Z,7.00
2023-02-24T16:16:47.167Z,7.23
2023-02-24T16:21:50.914Z,6.73
2023-02-24T16:26:55.357Z,7.13
2023-02-24T16:32:01.469Z,6.40
2023-02-24T16:37:06.073Z,6.17
2023-02-24T16:42:11.765Z,5.33
2023-02-24T16:47:20.666Z,5.53
2023-02-24T16:52:27.041Z,6.00
2023-02-24T16:57:36.088Z,5.57
2023-02-24T17:02:42.585Z,5.40
2023-02-24T17:07:47.953Z,5.47
2023-02-24T17:12:52.274Z,5.50
2023-02-24T17:17:58.796Z,6.20
2023-02-24T17:23:02.963Z,5.20
2023-02-24T17:28:08.153Z,5.00
2023-02-24T17:33:15.390Z,5.47
2023-02-24T17:38:20.821Z,5.13
2023-02-24T17:43:24.774Z,4.70
2023-02-24T17:48:30.561Z,5.10
2023-02-24T17:53:34.196Z,5.20
2023-02-24T17:58:40.809Z,4.50
2023-02-24T18:03:46.385Z,5.07
2023-02-24T18:08:51.039Z,4.13
2023-02-24T18:14:00.329Z,4.43
2023-02-24T18:19:06.007Z,4.43
2023-02-24T18:24:11.294Z,4.00
2023-02-24T18:29:15.595Z,4.73
2023-02-24T18:34:21.054Z,4.83
2023-02-24T18:39:26.472Z,4.23
2023-02-24T18:44:31.337Z,4.53
2023-02-24T18:49:38.308Z,4.00
2023-02-24T18:54:42.592Z,4.50
2023-02-24T18:59:53.792Z,3.97
2023-02-24T19:04:59.374Z,4.40
2023-02-24T19:10:03.620Z,5.17
2023-02-24T19:15:09.548Z,3.93
2023-02-24T19:20:20.131Z,4.90
2023-02-24T19:25:26.437Z,3.93
2023-02-24T19:30:32.204Z,3.97
2023-02-24T19:35:42.910Z,3.50
2023-02-24T19:40:49.984Z,3.27
2023-02-24T19:45:56.057Z,2.90
2023-02-24T19:51:03.029Z,3.30
2023-02-24T19:56:08.239Z,2.80
2023-02-24T20:01:14.217Z,2.70
2023-02-24T20:06:26.088Z,2.83
2023-02-24T20:11:33.544Z,2.93
2023-02-24T20:16:39.929Z,2.30
2023-02-24T20:22:02.223Z,4.93
2023-02-24T20:27:07.800Z,3.30
2023-02-24T20:32:14.359Z,7.50
2023-02-24T20:37:24.628Z,4.90
2023-02-24T20:42:37.891Z,4.40
2023-02-24T20:47:43.145Z,3.50
2023-02-24T20:52:53.290Z,5.73
2023-02-24T20:57:57.829Z,3.70
2023-02-24T21:03:04.727Z,3.10
2023-02-24T21:08:15.057Z,6.90
2023-02-24T21:13:22.794Z,15.73
2023-02-24T21:18:27.247Z,8.70
2023-02-24T21:23:32.902Z,7.87
2023-02-24T21:28:38.015Z,5.87
2023-02-24T21:33:41.636Z,5.40
2023-02-24T21:38:47.802Z,2.10
2023-02-24T21:43:56.005Z,2.60
2023-02-24T21:49:00.369Z,4.60
2023-02-24T21:54:05.594Z,7.73
2023-02-24T21:59:11.863Z,7.00
2023-02-24T22:04:18.087Z,6.20
2023-02-24T22:09:22.912Z,8.53
2023-02-24T22:14:26.221Z,5.80
2023-02-24T22:19:29.487Z,4.23
2023-02-24T22:24:34.144Z,4.47
2023-02-24T22:29:37.376Z,4.20
2023-02-24T22:34:40.657Z,9.43
2023-02-24T22:39:45.316Z,10.00
2023-02-24T22:44:51.454Z,8.97
2023-02-24T22:49:54.816Z,9.47
2023-02-24T22:54:59.465Z,8.20
2023-02-24T23:00:02.881Z,7.40
2023-02-24T23:05:07.079Z,7.30
2023-02-24T23:10:13.688Z,5.80
2023-02-24T23:15:17.314Z,6.43
2023-02-24T23:20:20.854Z,6.80
2023-02-24T23:25:25.532Z,8.83
2023-02-24T23:30:28.798Z,9.07
2023-02-24T23:35:32.049Z,9.43
2023-02-24T23:40:49.488Z,9.60
2023-02-24T23:45:53.936Z,9.37
2023-02-24T23:50:57.810Z,9.17
2023-02-24T23:56:07.011Z,9.10
